createdAt,value
2022-08-11T00:01:31.741Z,0
2022-08-11T00:03:57.832Z,0
2022-08-11T00:06:23.923Z,0
2022-08-11T00:08:50.006Z,0
2022-08-11T00:11:16.120Z,0
2022-08-11T00:13:42.212Z,0
2022-08-11T00:16:08.309Z,0
2022-08-11T00:18:34.399Z,0
2022-08-11T00:21:00.508Z,0
2022-08-11T00:23:26.587Z,0
2022-08-11T00:25:51.699Z,0
2022-08-11T00:28:17.803Z,0
2022-08-11T00:30:43.892Z,0
2022-08-11T00:33:09.990Z,0
2022-08-11T00:35:36.087Z,0
2022-08-11T00:38:02.192Z,0
2022-08-11T00:40:28.286Z,0
2022-08-11T00:42:53.403Z,0
2022-08-11T00:45:18.507Z,0
2022-08-11T00:47:44.608Z,0
2022-08-11T00:50:10.698Z,0
2022-08-11T00:52:36.797Z,0
2022-08-11T00:55:02.912Z,0
2022-08-11T00:57:28.993Z,0
2022-08-11T00:59:55.100Z,0
2022-08-11T01:02:21.241Z,0
2022-08-11T01:04:47.297Z,0
2022-08-11T01:07:13.386Z,0
2022-08-11T01:09:39.472Z,0
2022-08-11T01:12:05.571Z,0
2022-08-11T01:14:31.672Z,0
2022-08-11T01:16:56.785Z,0
2022-08-11T01:19:22.873Z,0
2022-08-11T01:21:48.981Z,0
2022-08-11T01:24:15.087Z,0
2022-08-11T01:26:41.158Z,0
2022-08-11T01:29:07.258Z,0
2022-08-11T01:31:33.354Z,0
2022-08-11T01:33:58.487Z,0
2022-08-11T01:36:23.577Z,0
2022-08-11T01:38:48.715Z,0
2022-08-11T01:41:13.806Z,0
2022-08-11T01:43:38.924Z,0
2022-08-11T01:46:04.062Z,0
2022-08-11T01:48:30.149Z,0
2022-08-11T01:53:22.327Z,0
2022-08-11T01:55:48.424Z,0
2022-08-11T01:58:14.531Z,0
2022-08-11T02:00:40.627Z,0
2022-08-11T02:03:06.721Z,0
2022-08-11T02:05:32.818Z,0
2022-08-11T02:07:58.913Z,0
2022-08-11T02:10:24.997Z,0
2022-08-11T02:12:51.091Z,0
2022-08-11T02:15:17.191Z,0
2022-08-11T02:17:42.313Z,0
2022-08-11T02:20:08.388Z,0
2022-08-11T02:22:34.494Z,0
2022-08-11T02:25:00.614Z,0
2022-08-11T02:27:26.679Z,0
2022-08-11T02:29:52.771Z,0
2022-08-11T02:32:18.880Z,0
2022-08-11T02:34:44.955Z,0
2022-08-11T02:37:10.094Z,0
2022-08-11T02:39:35.194Z,0
2022-08-11T02:42:01.287Z,0
2022-08-11T02:44:26.402Z,0
2022-08-11T02:46:51.518Z,0
2022-08-11T02:49:17.618Z,0
2022-08-11T02:51:43.718Z,0
2022-08-11T02:54:09.827Z,0
2022-08-11T02:56:35.901Z,0
2022-08-11T02:59:01.987Z,0
2022-08-11T03:01:28.099Z,0
2022-08-11T03:03:54.179Z,0
2022-08-11T03:06:20.283Z,0
2022-08-11T03:08:46.420Z,0
2022-08-11T03:11:12.470Z,0
2022-08-11T03:13:38.576Z,0
2022-08-11T03:16:04.663Z,0
2022-08-11T03:18:29.757Z,0
2022-08-11T03:20:55.858Z,0
2022-08-11T03:23:21.943Z,0
2022-08-11T03:25:48.043Z,0
2022-08-11T03:28:14.147Z,0
2022-08-11T03:30:40.255Z,0
2022-08-11T03:33:06.332Z,0
2022-08-11T03:35:31.456Z,0
2022-08-11T03:37:56.596Z,0
2022-08-11T03:40:22.666Z,0
2022-08-11T03:42:48.793Z,4
2022-08-11T03:45:14.882Z,8
2022-08-11T03:47:40.966Z,12
2022-08-11T03:50:07.056Z,16
2022-08-11T03:52:33.146Z,24
2022-08-11T03:54:59.237Z,36
2022-08-11T03:57:25.350Z,48
2022-08-11T03:59:51.424Z,68
2022-08-11T04:02:17.520Z,92
2022-08-11T04:04:43.627Z,124
2022-08-11T04:07:09.728Z,160
2022-08-11T04:09:34.850Z,200
2022-08-11T04:12:00.966Z,244
2022-08-11T04:14:27.021Z,301
2022-08-11T04:16:53.113Z,353
2022-08-11T04:19:19.218Z,413
2022-08-11T04:21:45.315Z,477
2022-08-11T04:24:11.397Z,550
2022-08-11T04:26:36.538Z,618
2022-08-11T04:29:01.630Z,690
2022-08-11T04:31:26.769Z,766
2022-08-11T04:33:51.876Z,847
2022-08-11T04:36:17.003Z,919
2022-08-11T04:38:42.112Z,995
2022-08-11T04:41:08.197Z,1068
2022-08-11T04:43:34.315Z,1144
2022-08-11T04:46:00.388Z,1216
2022-08-11T04:48:26.494Z,1281
2022-08-11T04:50:52.592Z,1349
2022-08-11T04:53:18.692Z,1413
2022-08-11T04:55:44.778Z,1473
2022-08-11T04:58:10.873Z,1529
2022-08-11T05:00:36.972Z,1586
2022-08-11T05:03:03.074Z,1642
2022-08-11T05:05:29.158Z,1694
2022-08-11T05:07:55.256Z,1750
2022-08-11T05:10:20.373Z,1795
2022-08-11T05:12:46.471Z,1839
2022-08-11T05:15:12.597Z,1887
2022-08-11T05:17:38.658Z,1935
2022-08-11T05:20:04.773Z,1975
2022-08-11T05:22:30.850Z,2019
2022-08-11T05:24:56.951Z,2060
2022-08-11T05:27:22.087Z,2096
2022-08-11T05:29:47.193Z,2132
2022-08-11T05:32:13.272Z,2168
2022-08-11T05:34:39.384Z,2204
2022-08-11T05:37:05.470Z,2224
2022-08-11T05:39:31.558Z,2252
2022-08-11T05:41:57.651Z,2284
2022-08-11T05:44:23.741Z,2305
2022-08-11T05:46:49.850Z,2329
2022-08-11T05:49:15.934Z,2357
2022-08-11T05:51:42.046Z,2381
2022-08-11T05:54:08.125Z,2401
2022-08-11T05:56:34.218Z,2425
2022-08-11T05:59:00.333Z,2437
2022-08-11T06:01:25.434Z,2461
2022-08-11T06:03:51.536Z,2481
2022-08-11T06:06:17.616Z,2497
2022-08-11T06:08:43.721Z,2513
2022-08-11T06:11:09.822Z,2541
2022-08-11T06:13:35.903Z,2562
2022-08-11T06:16:01.999Z,2582
2022-08-11T06:18:27.117Z,2602
2022-08-11T06:20:52.238Z,2618
2022-08-11T06:23:17.366Z,2626
2022-08-11T06:25:42.463Z,2646
2022-08-11T06:28:07.604Z,2666
2022-08-11T06:30:32.714Z,2686
2022-08-11T06:32:58.807Z,2710
2022-08-11T06:35:24.896Z,2726
2022-08-11T06:37:50.991Z,2734
2022-08-11T06:40:17.080Z,2742
2022-08-11T06:42:43.178Z,2750
2022-08-11T06:45:09.259Z,2766
2022-08-11T06:47:35.356Z,2766
2022-08-11T06:50:01.470Z,2778
2022-08-11T06:52:27.561Z,2794
2022-08-11T06:54:53.662Z,2806
2022-08-11T06:57:19.751Z,2819
2022-08-11T06:59:45.845Z,2827
2022-08-11T07:02:10.966Z,2835
2022-08-11T07:04:37.093Z,2847
2022-08-11T07:07:03.151Z,2855
2022-08-11T07:09:29.236Z,2859
2022-08-11T07:11:55.339Z,2871
2022-08-11T07:16:47.525Z,2879
2022-08-11T07:19:13.624Z,2883
2022-08-11T07:21:38.752Z,2899
2022-08-11T07:26:29.954Z,2919
2022-08-11T07:28:55.073Z,2931
2022-08-11T07:31:20.180Z,2939
2022-08-11T07:33:46.273Z,2947
2022-08-11T07:36:12.405Z,2955
2022-08-11T07:38:38.468Z,2967
2022-08-11T07:41:04.575Z,2963
2022-08-11T07:43:30.661Z,2975
2022-08-11T07:45:56.748Z,2975
2022-08-11T07:48:22.855Z,2975
2022-08-11T07:50:48.969Z,2987
2022-08-11T07:53:15.052Z,3003
2022-08-11T07:55:41.146Z,3007
2022-08-11T07:58:07.225Z,3023
2022-08-11T08:00:32.355Z,3019
2022-08-11T08:02:57.475Z,3031
2022-08-11T08:05:22.592Z,3039
2022-08-11T08:07:47.707Z,3047
2022-08-11T08:10:13.810Z,3051
2022-08-11T08:12:39.888Z,3055
2022-08-11T08:15:05.996Z,3067
2022-08-11T08:17:32.086Z,3084
2022-08-11T08:19:58.178Z,3063
2022-08-11T08:22:24.270Z,3100
2022-08-11T08:24:50.377Z,3088
2022-08-11T08:27:16.472Z,3096
2022-08-11T08:29:42.559Z,3132
2022-08-11T08:32:08.666Z,3112
2022-08-11T08:34:33.764Z,3124
2022-08-11T08:36:59.883Z,3128
2022-08-11T08:44:18.146Z,3156
2022-08-11T08:46:43.270Z,3164
2022-08-11T08:49:08.383Z,3188
2022-08-11T08:51:34.500Z,3200
2022-08-11T08:54:00.573Z,3180
2022-08-11T08:56:26.678Z,3220
2022-08-11T08:58:52.774Z,3292
2022-08-11T09:01:18.940Z,3276
2022-08-11T09:03:44.973Z,3276
2022-08-11T09:06:11.067Z,3256
2022-08-11T09:08:37.146Z,3288
2022-08-11T09:11:03.245Z,3288
2022-08-11T09:13:28.370Z,3345
2022-08-11T09:15:53.472Z,3349
2022-08-11T09:18:19.574Z,3357
2022-08-11T09:20:45.670Z,3381
2022-08-11T09:23:11.777Z,3377
2022-08-11T09:25:37.863Z,3381
2022-08-11T09:28:03.960Z,3409
2022-08-11T09:30:30.065Z,3429
2022-08-11T09:32:56.137Z,3465
2022-08-11T09:35:22.233Z,3497
2022-08-11T09:37:48.332Z,3497
2022-08-11T09:40:14.417Z,3573
2022-08-11T09:42:40.521Z,3509
2022-08-11T09:45:06.630Z,3469
2022-08-11T09:47:31.726Z,3509
2022-08-11T09:49:57.811Z,3594
2022-08-11T09:52:23.917Z,3630
2022-08-11T09:54:50.001Z,3626
2022-08-11T09:57:16.096Z,3754
2022-08-11T09:59:42.223Z,3963
2022-08-11T10:02:08.284Z,3923
2022-08-11T10:04:33.413Z,3730
2022-08-11T10:06:59.506Z,3863
2022-08-11T10:09:24.620Z,4035
2022-08-11T10:11:49.743Z,3979
2022-08-11T10:14:15.839Z,3859
2022-08-11T10:16:41.939Z,3899
2022-08-11T10:19:08.030Z,3959
2022-08-11T10:21:34.130Z,3931
2022-08-11T10:24:00.219Z,4011
2022-08-11T10:26:26.306Z,4039
2022-08-11T10:28:52.405Z,4108
2022-08-11T10:31:18.503Z,4003
2022-08-11T10:33:44.605Z,3967
2022-08-11T10:36:10.688Z,4011
2022-08-11T10:38:36.786Z,4079
2022-08-11T10:41:02.883Z,4140
2022-08-11T10:43:28.000Z,4212
2022-08-11T10:45:54.092Z,4168
2022-08-11T10:48:20.190Z,4208
2022-08-11T10:50:46.293Z,4248
2022-08-11T10:53:12.376Z,4300
2022-08-11T10:58:04.585Z,4272
2022-08-11T11:00:30.662Z,4308
2022-08-11T11:02:55.794Z,4369
2022-08-11T11:05:20.908Z,4409
2022-08-11T11:07:47.005Z,4481
2022-08-11T11:10:13.105Z,4601
2022-08-11T11:12:39.194Z,4858
2022-08-11T11:15:05.297Z,4686
2022-08-11T11:17:31.394Z,4702
2022-08-11T11:19:57.484Z,4706
2022-08-11T11:22:23.583Z,4802
2022-08-11T11:24:49.680Z,4846
2022-08-11T11:27:15.775Z,4903
2022-08-11T11:29:41.868Z,4975
2022-08-11T11:32:07.966Z,5015
2022-08-11T11:34:34.061Z,5055
2022-08-11T11:36:59.165Z,5103
2022-08-11T11:39:25.257Z,5124
2022-08-11T11:41:51.349Z,5103
2022-08-11T11:44:17.456Z,5132
2022-08-11T11:46:43.537Z,5200
2022-08-11T11:49:09.643Z,5300
2022-08-11T11:51:35.737Z,5425
2022-08-11T11:54:00.854Z,5557
2022-08-11T11:56:25.958Z,5682
2022-08-11T11:58:51.075Z,5830
2022-08-11T12:01:16.204Z,5967
2022-08-11T12:03:41.316Z,6059
2022-08-11T12:06:06.442Z,6144
2022-08-11T12:08:32.514Z,6260
2022-08-11T12:10:58.624Z,6525
2022-08-11T12:13:24.700Z,35852
2022-08-11T12:15:50.800Z,92617
2022-08-11T12:18:16.912Z,162490
2022-08-11T12:20:42.999Z,99171
2022-08-11T12:23:09.098Z,100199
2022-08-11T12:25:35.185Z,106528
2022-08-11T12:28:01.290Z,94481
2022-08-11T12:30:27.380Z,102191
2022-08-11T12:32:53.478Z,102383
2022-08-11T12:35:19.569Z,93967
2022-08-11T12:37:44.685Z,88730
2022-08-11T12:40:10.797Z,10709
2022-08-11T12:42:36.885Z,40445
2022-08-11T12:45:02.977Z,8192
2022-08-11T12:47:29.073Z,102962
2022-08-11T12:49:55.188Z,88987
2022-08-11T12:52:21.264Z,88698
2022-08-11T12:54:46.374Z,88923
2022-08-11T12:57:11.509Z,97243
2022-08-11T12:59:36.629Z,91525
2022-08-11T13:02:01.781Z,95316
2022-08-11T13:04:27.824Z,97275
2022-08-11T13:06:53.917Z,100070
2022-08-11T13:09:20.024Z,94256
2022-08-11T13:11:46.117Z,95476
2022-08-11T13:14:12.204Z,88345
2022-08-11T13:16:38.303Z,96023
2022-08-11T13:19:04.400Z,95027
2022-08-11T13:21:30.508Z,23869
2022-08-11T13:23:56.660Z,10348
2022-08-11T13:26:22.693Z,13420
2022-08-11T13:28:48.782Z,63897
2022-08-11T13:31:14.875Z,8826
2022-08-11T13:33:39.987Z,8963
2022-08-11T13:36:06.096Z,52685
2022-08-11T13:38:32.193Z,85775
2022-08-11T13:40:58.283Z,82948
2022-08-11T13:43:24.376Z,99813
2022-08-11T13:45:50.494Z,84682
2022-08-11T13:48:16.582Z,81662
2022-08-11T13:50:41.699Z,86610
2022-08-11T13:53:06.801Z,85935
2022-08-11T13:55:31.925Z,78868
2022-08-11T13:57:57.053Z,87445
2022-08-11T14:00:23.145Z,79382
2022-08-11T14:02:48.273Z,84939
2022-08-11T14:05:13.405Z,82851
2022-08-11T14:07:39.465Z,76394
2022-08-11T14:10:05.577Z,82241
2022-08-11T14:12:31.669Z,82915
2022-08-11T14:14:57.774Z,71447
2022-08-11T14:17:23.851Z,79510
2022-08-11T14:19:49.960Z,87381
2022-08-11T14:22:16.061Z,80056
2022-08-11T14:24:42.158Z,74177
2022-08-11T14:27:08.247Z,71800
2022-08-11T14:29:34.355Z,69455
2022-08-11T14:32:00.437Z,74049
2022-08-11T14:34:26.545Z,79092
2022-08-11T14:36:51.647Z,70579
2022-08-11T14:39:17.752Z,58532
2022-08-11T14:41:57.137Z,67945
2022-08-11T14:44:09.954Z,62516
2022-08-11T14:46:36.036Z,72860
2022-08-11T14:49:02.148Z,62580
2022-08-11T14:51:28.236Z,57376
2022-08-11T14:53:53.355Z,64925
2022-08-11T14:56:18.478Z,53810
2022-08-11T14:58:43.609Z,70900
2022-08-11T15:01:08.712Z,62323
2022-08-11T15:03:34.817Z,56829
2022-08-11T15:08:27.023Z,78900
2022-08-11T15:10:53.127Z,61713
2022-08-11T15:13:19.207Z,66017
2022-08-11T15:15:45.316Z,65021
2022-08-11T15:18:11.399Z,59624
2022-08-11T15:20:37.507Z,51497
2022-08-11T15:23:03.621Z,51818
2022-08-11T15:25:29.692Z,66242
2022-08-11T15:27:55.782Z,55255
2022-08-11T15:30:21.891Z,50372
2022-08-11T15:32:47.016Z,54709
2022-08-11T15:35:13.106Z,50533
2022-08-11T15:37:39.199Z,46549
2022-08-11T15:40:05.292Z,51015
2022-08-11T15:42:31.388Z,49762
2022-08-11T15:44:57.487Z,47288
2022-08-11T15:47:23.585Z,51818
2022-08-11T15:49:49.673Z,53424
2022-08-11T15:52:14.804Z,52300
2022-08-11T15:54:39.937Z,51657
2022-08-11T15:57:05.059Z,49312
2022-08-11T15:59:30.157Z,47352
2022-08-11T16:01:56.264Z,43080
2022-08-11T16:04:22.366Z,40413
2022-08-11T16:06:48.445Z,37618
2022-08-11T16:09:14.555Z,44461
2022-08-11T16:11:40.654Z,38454
2022-08-11T16:14:06.752Z,39546
2022-08-11T16:16:32.840Z,33860
2022-08-11T16:18:58.956Z,34759
2022-08-11T16:21:25.038Z,37940
2022-08-11T16:23:51.144Z,27660
2022-08-11T16:26:17.650Z,34727
2022-08-11T16:28:43.333Z,28174
2022-08-11T16:31:08.453Z,31258
2022-08-11T16:33:34.545Z,29330
2022-08-11T16:36:00.650Z,29202
2022-08-11T16:38:26.740Z,28559
2022-08-11T16:40:52.839Z,27338
2022-08-11T16:43:17.945Z,28752
2022-08-11T16:45:44.061Z,24993
2022-08-11T16:48:09.187Z,27724
2022-08-11T16:50:34.300Z,27981
2022-08-11T16:52:59.420Z,29555
2022-08-11T16:55:24.531Z,27756
2022-08-11T16:57:50.617Z,28206
2022-08-11T17:00:16.728Z,27692
2022-08-11T17:02:42.823Z,18022
2022-08-11T17:05:08.923Z,24576
2022-08-11T17:07:35.022Z,18054
2022-08-11T17:10:01.118Z,18600
2022-08-11T17:12:27.221Z,21074
2022-08-11T17:14:53.316Z,13131
2022-08-11T17:17:19.408Z,19725
2022-08-11T17:19:45.489Z,14038
2022-08-11T17:22:11.598Z,11223
2022-08-11T17:24:37.694Z,17251
2022-08-11T17:27:02.805Z,16512
2022-08-11T17:29:28.902Z,17219
2022-08-11T17:31:55.002Z,13589
2022-08-11T17:34:21.107Z,11625
2022-08-11T17:36:47.188Z,8179
2022-08-11T17:39:13.282Z,4762
2022-08-11T17:41:39.387Z,3449
2022-08-11T17:44:04.520Z,3220
2022-08-11T17:46:29.619Z,2915
2022-08-11T17:48:55.723Z,2887
2022-08-11T17:51:21.807Z,2762
2022-08-11T17:53:47.913Z,2606
2022-08-11T17:56:14.010Z,2477
2022-08-11T17:58:40.103Z,2313
2022-08-11T18:01:06.202Z,2100
2022-08-11T18:03:32.293Z,1935
2022-08-11T18:05:58.383Z,1774
2022-08-11T18:08:24.478Z,1770
2022-08-11T18:10:50.566Z,1602
2022-08-11T18:13:16.676Z,1397
2022-08-11T18:15:42.771Z,1244
2022-08-11T18:18:07.871Z,1124
2022-08-11T18:20:33.970Z,999
2022-08-11T18:23:00.085Z,887
2022-08-11T18:25:26.159Z,799
2022-08-11T18:27:52.249Z,718
2022-08-11T18:30:18.359Z,602
2022-08-11T18:32:44.455Z,501
2022-08-11T18:35:09.575Z,425
2022-08-11T18:37:34.945Z,377
2022-08-11T18:39:59.803Z,321
2022-08-11T18:42:24.916Z,273
2022-08-11T18:44:51.018Z,224
2022-08-11T18:47:16.135Z,188
2022-08-11T18:49:41.251Z,156
2022-08-11T18:52:07.347Z,124
2022-08-11T18:54:33.438Z,92
2022-08-11T18:56:59.530Z,64
2022-08-11T18:59:25.634Z,44
2022-08-11T19:01:51.717Z,36
2022-08-11T19:04:17.822Z,24
2022-08-11T19:06:43.945Z,16
2022-08-11T19:09:10.002Z,12
2022-08-11T19:11:36.102Z,8
2022-08-11T19:14:02.204Z,4
2022-08-11T19:16:33.181Z,4
2022-08-11T19:18:54.411Z,0
2022-08-11T19:21:19.519Z,4
2022-08-11T19:23:45.611Z,0
2022-08-11T19:26:11.691Z,0
2022-08-11T19:28:37.795Z,0
2022-08-11T19:31:03.902Z,0
2022-08-11T19:33:29.989Z,0
2022-08-11T19:35:56.091Z,0
2022-08-11T19:38:21.207Z,0
2022-08-11T19:40:46.322Z,0
2022-08-11T19:43:12.413Z,0
2022-08-11T19:45:37.517Z,0
2022-08-11T19:48:02.655Z,0
2022-08-11T19:50:28.731Z,0
2022-08-11T19:52:54.826Z,0
2022-08-11T19:55:20.923Z,0
2022-08-11T19:57:47.022Z,0
2022-08-11T20:05:05.299Z,0
2022-08-11T20:07:31.405Z,0
2022-08-11T20:09:57.497Z,0
2022-08-11T20:12:23.604Z,0
2022-08-11T20:14:49.690Z,0
2022-08-11T20:17:14.824Z,0
2022-08-11T20:19:39.909Z,0
2022-08-11T20:22:06.021Z,0
2022-08-11T20:24:32.115Z,0
2022-08-11T20:26:58.206Z,0
2022-08-11T20:29:24.293Z,0
2022-08-11T20:31:50.402Z,0
2022-08-11T20:34:16.511Z,0
2022-08-11T20:36:42.604Z,0
2022-08-11T20:39:08.677Z,0
2022-08-11T20:41:34.806Z,0
2022-08-11T20:43:59.910Z,0
2022-08-11T20:46:25.027Z,0
2022-08-11T20:48:51.102Z,0
2022-08-11T20:51:17.192Z,0
2022-08-11T20:53:43.348Z,0
2022-08-11T20:56:09.414Z,0
2022-08-11T20:58:35.489Z,0
2022-08-11T21:01:01.643Z,0
2022-08-11T21:03:27.688Z,0
2022-08-11T21:05:53.762Z,0
2022-08-11T21:08:19.864Z,0
2022-08-11T21:10:45.966Z,0
2022-08-11T21:13:12.069Z,0
2022-08-11T21:15:38.166Z,0
2022-08-11T21:18:03.286Z,0
2022-08-11T21:20:29.371Z,0
2022-08-11T21:22:55.462Z,0
2022-08-11T21:25:21.573Z,0
2022-08-11T21:27:47.646Z,0
2022-08-11T21:30:13.749Z,0
2022-08-11T21:32:39.849Z,0
2022-08-11T21:35:04.975Z,0
2022-08-11T21:37:30.095Z,0
2022-08-11T21:39:56.180Z,0
2022-08-11T21:42:22.268Z,0
2022-08-11T21:44:47.402Z,0
2022-08-11T21:47:12.496Z,0
2022-08-11T21:49:38.591Z,0
2022-08-11T21:52:04.687Z,0
2022-08-11T21:54:30.787Z,0
2022-08-11T21:56:56.880Z,0
2022-08-11T21:59:22.985Z,0
2022-08-11T22:01:49.069Z,0
2022-08-11T22:04:15.183Z,0
2022-08-11T22:06:41.261Z,0
2022-08-11T22:09:07.363Z,0
2022-08-11T22:11:33.472Z,0
2022-08-11T22:13:59.550Z,0
2022-08-11T22:16:25.659Z,0
2022-08-11T22:18:50.789Z,0
2022-08-11T22:21:16.853Z,0
2022-08-11T22:23:42.954Z,0
2022-08-11T22:26:09.052Z,0
2022-08-11T22:28:35.135Z,0
2022-08-11T22:31:01.242Z,0
2022-08-11T22:33:27.338Z,0
2022-08-11T22:35:52.452Z,0
2022-08-11T22:38:17.557Z,0
2022-08-11T22:40:42.682Z,0
2022-08-11T22:43:08.794Z,0
2022-08-11T22:45:33.892Z,0
2022-08-11T22:47:59.986Z,0
2022-08-11T22:50:26.098Z,0
2022-08-11T22:52:52.175Z,0
2022-08-11T22:55:18.276Z,0
2022-08-11T22:57:44.363Z,0
2022-08-11T23:00:10.478Z,0
2022-08-11T23:02:36.558Z,0
2022-08-11T23:05:02.664Z,0
2022-08-11T23:07:28.749Z,0
2022-08-11T23:09:54.852Z,0
2022-08-11T23:12:20.941Z,0
2022-08-11T23:14:47.057Z,0
2022-08-11T23:17:12.157Z,0
2022-08-11T23:19:38.240Z,0
2022-08-11T23:22:04.333Z,0
2022-08-11T23:24:30.438Z,0
2022-08-11T23:26:56.540Z,0
2022-08-11T23:29:22.623Z,0
2022-08-11T23:31:47.748Z,0
2022-08-11T23:34:12.863Z,0
2022-08-11T23:36:37.980Z,0
2022-08-11T23:39:03.099Z,0
2022-08-11T23:41:29.172Z,0
2022-08-11T23:43:55.277Z,0
2022-08-11T23:46:21.387Z,0
2022-08-11T23:48:47.466Z,0
2022-08-11T23:51:13.559Z,0
2022-08-11T23:53:39.662Z,0
2022-08-11T23:56:05.758Z,0
2022-08-11T23:58:31.854Z,0
